sensor_id;sensor_type;location;lat;lon;timestamp;pressure;altitude;pressure_sealevel;temperature
71463;BMP180;59266;52.608;13.260;2023-05-07T00:00:14;101810.00;;;9.80
71463;BMP180;59266;52.608;13.260;2023-05-07T00:02:42;101814.00;;;9.80
71463;BMP180;59266;52.608;13.260;2023-05-07T00:05:09;101812.00;;;9.60
71463;BMP180;59266;52.608;13.260;2023-05-07T00:07:36;101808.00;;;9.70
71463;BMP180;59266;52.608;13.260;2023-05-07T00:10:04;101814.00;;;9.60
71463;BMP180;59266;52.608;13.260;2023-05-07T00:12:30;101815.00;;;9.70
71463;BMP180;59266;52.608;13.260;2023-05-07T00:15:03;101817.00;;;9.60
71463;BMP180;59266;52.608;13.260;2023-05-07T00:17:30;101811.00;;;9.60
71463;BMP180;59266;52.608;13.260;2023-05-07T00:19:57;101817.00;;;9.70
71463;BMP180;59266;52.608;13.260;2023-05-07T00:22:27;101820.00;;;9.60
71463;BMP180;59266;52.608;13.260;2023-05-07T00:24:56;101818.00;;;9.60
71463;BMP180;59266;52.608;13.260;2023-05-07T00:27:24;101825.00;;;9.50
71463;BMP180;59266;52.608;13.260;2023-05-07T00:29:50;101810.00;;;9.50
71463;BMP180;59266;52.608;13.260;2023-05-07T00:32:18;101814.00;;;9.60
71463;BMP180;59266;52.608;13.260;2023-05-07T00:34:45;101814.00;;;9.60
71463;BMP180;59266;52.608;13.260;2023-05-07T00:37:11;101803.00;;;9.70
71463;BMP180;59266;52.608;13.260;2023-05-07T00:39:38;101817.00;;;9.60
71463;BMP180;59266;52.608;13.260;2023-05-07T00:42:05;101814.00;;;9.50
71463;BMP180;59266;52.608;13.260;2023-05-07T00:44:31;101814.00;;;9.50
71463;BMP180;59266;52.608;13.260;2023-05-07T00:47:01;101815.00;;;9.50
71463;BMP180;59266;52.608;13.260;2023-05-07T00:49:38;101823.00;;;9.50
71463;BMP180;59266;52.608;13.260;2023-05-07T00:52:07;101808.00;;;9.60
71463;BMP180;59266;52.608;13.260;2023-05-07T00:54:36;101814.00;;;9.50
71463;BMP180;59266;52.608;13.260;2023-05-07T00:57:03;101813.00;;;9.60
71463;BMP180;59266;52.608;13.260;2023-05-07T00:59:33;101813.00;;;9.50
71463;BMP180;59266;52.608;13.260;2023-05-07T01:02:00;101809.00;;;9.50
71463;BMP180;59266;52.608;13.260;2023-05-07T01:04:27;101815.00;;;9.60
71463;BMP180;59266;52.608;13.260;2023-05-07T01:06:56;101808.00;;;9.60
71463;BMP180;59266;52.608;13.260;2023-05-07T01:09:27;101809.00;;;9.50
71463;BMP180;59266;52.608;13.260;2023-05-07T01:11:55;101805.00;;;9.60
71463;BMP180;59266;52.608;13.260;2023-05-07T01:14:25;101806.00;;;9.50
71463;BMP180;59266;52.608;13.260;2023-05-07T01:16:52;101798.00;;;9.50
71463;BMP180;59266;52.608;13.260;2023-05-07T01:19:19;101818.00;;;9.50
71463;BMP180;59266;52.608;13.260;2023-05-07T01:21:47;101822.00;;;9.60
71463;BMP180;59266;52.608;13.260;2023-05-07T01:24:22;101821.00;;;9.60
71463;BMP180;59266;52.608;13.260;2023-05-07T01:26:50;101819.00;;;9.60
71463;BMP180;59266;52.608;13.260;2023-05-07T01:29:17;101819.00;;;9.50
71463;BMP180;59266;52.608;13.260;2023-05-07T01:31:47;101823.00;;;9.60
71463;BMP180;59266;52.608;13.260;2023-05-07T01:34:14;101823.00;;;9.60
71463;BMP180;59266;52.608;13.260;2023-05-07T01:36:44;101826.00;;;9.60
71463;BMP180;59266;52.608;13.260;2023-05-07T01:39:11;101814.00;;;9.40
71463;BMP180;59266;52.608;13.260;2023-05-07T01:41:38;101824.00;;;9.40
71463;BMP180;59266;52.608;13.260;2023-05-07T01:44:05;101817.00;;;9.40
71463;BMP180;59266;52.608;13.260;2023-05-07T01:46:32;101827.00;;;9.50
71463;BMP180;59266;52.608;13.260;2023-05-07T01:48:59;101824.00;;;9.50
71463;BMP180;59266;52.608;13.260;2023-05-07T01:51:27;101826.00;;;9.60
71463;BMP180;59266;52.608;13.260;2023-05-07T01:53:54;101825.00;;;9.60
71463;BMP180;59266;52.608;13.260;2023-05-07T01:56:24;101820.00;;;9.60
71463;BMP180;59266;52.608;13.260;2023-05-07T01:58:51;101822.00;;;9.50
71463;BMP180;59266;52.608;13.260;2023-05-07T02:01:21;101819.00;;;9.30
71463;BMP180;59266;52.608;13.260;2023-05-07T02:03:48;101823.00;;;9.30
71463;BMP180;59266;52.608;13.260;2023-05-07T02:06:16;101826.00;;;9.30
71463;BMP180;59266;52.608;13.260;2023-05-07T02:08:43;101825.00;;;9.30
71463;BMP180;59266;52.608;13.260;2023-05-07T02:11:09;101828.00;;;9.40
71463;BMP180;59266;52.608;13.260;2023-05-07T02:13:36;101823.00;;;9.30
71463;BMP180;59266;52.608;13.260;2023-05-07T02:16:03;101826.00;;;9.30
71463;BMP180;59266;52.608;13.260;2023-05-07T02:18:33;101834.00;;;9.30
71463;BMP180;59266;52.608;13.260;2023-05-07T02:20:59;101837.00;;;9.20
71463;BMP180;59266;52.608;13.260;2023-05-07T02:23:27;101841.00;;;9.20
71463;BMP180;59266;52.608;13.260;2023-05-07T02:25:54;101837.00;;;9.30
71463;BMP180;59266;52.608;13.260;2023-05-07T02:28:20;101840.00;;;9.40
71463;BMP180;59266;52.608;13.260;2023-05-07T02:30:47;101835.00;;;9.30
71463;BMP180;59266;52.608;13.260;2023-05-07T02:33:14;101840.00;;;9.30
71463;BMP180;59266;52.608;13.260;2023-05-07T02:35:44;101847.00;;;9.30
71463;BMP180;59266;52.608;13.260;2023-05-07T02:38:10;101840.00;;;9.30
71463;BMP180;59266;52.608;13.260;2023-05-07T02:40:37;101847.00;;;9.30
71463;BMP180;59266;52.608;13.260;2023-05-07T02:43:08;101845.00;;;9.20
71463;BMP180;59266;52.608;13.260;2023-05-07T02:45:35;101856.00;;;9.30
71463;BMP180;59266;52.608;13.260;2023-05-07T02:48:04;101855.00;;;9.30
71463;BMP180;59266;52.608;13.260;2023-05-07T02:50:32;101848.00;;;9.40
71463;BMP180;59266;52.608;13.260;2023-05-07T02:53:00;101857.00;;;9.40
71463;BMP180;59266;52.608;13.260;2023-05-07T02:55:28;101860.00;;;9.30
71463;BMP180;59266;52.608;13.260;2023-05-07T02:57:56;101870.00;;;9.30
71463;BMP180;59266;52.608;13.260;2023-05-07T03:00:24;101861.00;;;9.40
71463;BMP180;59266;52.608;13.260;2023-05-07T03:02:51;101863.00;;;9.30
71463;BMP180;59266;52.608;13.260;2023-05-07T03:05:19;101872.00;;;9.30
71463;BMP180;59266;52.608;13.260;2023-05-07T03:07:50;101864.00;;;9.30
71463;BMP180;59266;52.608;13.260;2023-05-07T03:10:18;101860.00;;;9.20
71463;BMP180;59266;52.608;13.260;2023-05-07T03:12:44;101856.00;;;9.10
71463;BMP180;59266;52.608;13.260;2023-05-07T03:15:11;101863.00;;;9.20
71463;BMP180;59266;52.608;13.260;2023-05-07T03:17:41;101870.00;;;9.30
71463;BMP180;59266;52.608;13.260;2023-05-07T03:20:08;101861.00;;;9.40
71463;BMP180;59266;52.608;13.260;2023-05-07T03:22:36;101864.00;;;9.30
71463;BMP180;59266;52.608;13.260;2023-05-07T03:25:05;101863.00;;;9.40
71463;BMP180;59266;52.608;13.260;2023-05-07T03:27:32;101863.00;;;9.30
71463;BMP180;59266;52.608;13.260;2023-05-07T03:29:59;101870.00;;;9.30
71463;BMP180;59266;52.608;13.260;2023-05-07T03:32:27;101875.00;;;9.30
71463;BMP180;59266;52.608;13.260;2023-05-07T03:34:55;101875.00;;;9.30
71463;BMP180;59266;52.608;13.260;2023-05-07T03:37:24;101873.00;;;9.20
71463;BMP180;59266;52.608;13.260;2023-05-07T03:39:52;101869.00;;;9.40
71463;BMP180;59266;52.608;13.260;2023-05-07T03:42:19;101865.00;;;9.40
71463;BMP180;59266;52.608;13.260;2023-05-07T03:44:47;101869.00;;;9.40
71463;BMP180;59266;52.608;13.260;2023-05-07T03:47:14;101873.00;;;9.50
71463;BMP180;59266;52.608;13.260;2023-05-07T03:49:41;101872.00;;;9.50
71463;BMP180;59266;52.608;13.260;2023-05-07T03:52:09;101877.00;;;9.40
71463;BMP180;59266;52.608;13.260;2023-05-07T03:54:38;101880.00;;;9.30
71463;BMP180;59266;52.608;13.260;2023-05-07T03:57:04;101888.00;;;9.40
71463;BMP180;59266;52.608;13.260;2023-05-07T03:59:31;101888.00;;;9.40
71463;BMP180;59266;52.608;13.260;2023-05-07T04:02:01;101886.00;;;9.50
71463;BMP180;59266;52.608;13.260;2023-05-07T04:04:31;101887.00;;;9.40
71463;BMP180;59266;52.608;13.260;2023-05-07T04:06:59;101888.00;;;9.40
71463;BMP180;59266;52.608;13.260;2023-05-07T04:09:26;101883.00;;;9.40
71463;BMP180;59266;52.608;13.260;2023-05-07T04:11:53;101886.00;;;9.30
71463;BMP180;59266;52.608;13.260;2023-05-07T04:14:21;101887.00;;;9.30
71463;BMP180;59266;52.608;13.260;2023-05-07T04:16:48;101890.00;;;9.50
71463;BMP180;59266;52.608;13.260;2023-05-07T04:19:15;101891.00;;;9.40
71463;BMP180;59266;52.608;13.260;2023-05-07T04:21:43;101893.00;;;9.40
71463;BMP180;59266;52.608;13.260;2023-05-07T04:24:09;101886.00;;;9.60
71463;BMP180;59266;52.608;13.260;2023-05-07T04:26:36;101898.00;;;9.40
71463;BMP180;59266;52.608;13.260;2023-05-07T04:29:02;101897.00;;;9.40
71463;BMP180;59266;52.608;13.260;2023-05-07T04:31:30;101904.00;;;9.40
71463;BMP180;59266;52.608;13.260;2023-05-07T04:33:58;101908.00;;;9.50
71463;BMP180;59266;52.608;13.260;2023-05-07T04:36:28;101908.00;;;9.60
71463;BMP180;59266;52.608;13.260;2023-05-07T04:38:55;101898.00;;;9.70
71463;BMP180;59266;52.608;13.260;2023-05-07T04:41:22;101901.00;;;9.70
71463;BMP180;59266;52.608;13.260;2023-05-07T04:43:48;101899.00;;;9.70
71463;BMP180;59266;52.608;13.260;2023-05-07T04:46:16;101900.00;;;9.60
71463;BMP180;59266;52.608;13.260;2023-05-07T04:48:42;101908.00;;;9.80
71463;BMP180;59266;52.608;13.260;2023-05-07T04:51:11;101903.00;;;9.70
71463;BMP180;59266;52.608;13.260;2023-05-07T04:53:37;101911.00;;;9.60
71463;BMP180;59266;52.608;13.260;2023-05-07T04:56:06;101917.00;;;9.60
71463;BMP180;59266;52.608;13.260;2023-05-07T04:58:32;101917.00;;;9.60
71463;BMP180;59266;52.608;13.260;2023-05-07T05:01:00;101918.00;;;9.40
71463;BMP180;59266;52.608;13.260;2023-05-07T05:03:30;101919.00;;;9.60
71463;BMP180;59266;52.608;13.260;2023-05-07T05:05:59;101914.00;;;9.60
71463;BMP180;59266;52.608;13.260;2023-05-07T05:08:29;101930.00;;;9.50
71463;BMP180;59266;52.608;13.260;2023-05-07T05:10:56;101932.00;;;9.70
71463;BMP180;59266;52.608;13.260;2023-05-07T05:13:29;101935.00;;;9.80
71463;BMP180;59266;52.608;13.260;2023-05-07T05:15:57;101929.00;;;9.70
71463;BMP180;59266;52.608;13.260;2023-05-07T05:18:24;101935.00;;;9.60
71463;BMP180;59266;52.608;13.260;2023-05-07T05:20:51;101930.00;;;9.70
71463;BMP180;59266;52.608;13.260;2023-05-07T05:23:18;101926.00;;;9.70
71463;BMP180;59266;52.608;13.260;2023-05-07T05:25:46;101929.00;;;9.60
71463;BMP180;59266;52.608;13.260;2023-05-07T05:28:15;101930.00;;;9.70
71463;BMP180;59266;52.608;13.260;2023-05-07T05:30:42;101930.00;;;9.60
71463;BMP180;59266;52.608;13.260;2023-05-07T05:33:09;101930.00;;;9.50
71463;BMP180;59266;52.608;13.260;2023-05-07T05:35:37;101919.00;;;9.70
71463;BMP180;59266;52.608;13.260;2023-05-07T05:38:04;101929.00;;;10.00
71463;BMP180;59266;52.608;13.260;2023-05-07T05:40:32;101923.00;;;10.00
71463;BMP180;59266;52.608;13.260;2023-05-07T05:42:59;101925.00;;;10.20
71463;BMP180;59266;52.608;13.260;2023-05-07T05:45:26;101930.00;;;10.60
71463;BMP180;59266;52.608;13.260;2023-05-07T05:47:57;101926.00;;;10.60
71463;BMP180;59266;52.608;13.260;2023-05-07T05:50:24;101931.00;;;10.70
71463;BMP180;59266;52.608;13.260;2023-05-07T05:52:52;101936.00;;;10.70
71463;BMP180;59266;52.608;13.260;2023-05-07T05:55:19;101933.00;;;10.70
71463;BMP180;59266;52.608;13.260;2023-05-07T05:57:47;101940.00;;;10.90
71463;BMP180;59266;52.608;13.260;2023-05-07T06:00:14;101944.00;;;11.10
71463;BMP180;59266;52.608;13.260;2023-05-07T06:02:42;101939.00;;;11.00
71463;BMP180;59266;52.608;13.260;2023-05-07T06:05:12;101934.00;;;10.90
71463;BMP180;59266;52.608;13.260;2023-05-07T06:07:38;101935.00;;;11.40
71463;BMP180;59266;52.608;13.260;2023-05-07T06:10:06;101936.00;;;11.30
71463;BMP180;59266;52.608;13.260;2023-05-07T06:12:32;101931.00;;;11.70
71463;BMP180;59266;52.608;13.260;2023-05-07T06:14:59;101937.00;;;11.80
71463;BMP180;59266;52.608;13.260;2023-05-07T06:17:26;101936.00;;;11.60
71463;BMP180;59266;52.608;13.260;2023-05-07T06:19:52;101945.00;;;12.00
71463;BMP180;59266;52.608;13.260;2023-05-07T06:22:20;101949.00;;;12.30
71463;BMP180;59266;52.608;13.260;2023-05-07T06:24:47;101944.00;;;12.40
71463;BMP180;59266;52.608;13.260;2023-05-07T06:27:16;101918.00;;;13.40
71463;BMP180;59266;52.608;13.260;2023-05-07T06:29:42;101940.00;;;14.30
71463;BMP180;59266;52.608;13.260;2023-05-07T06:32:10;101913.00;;;14.40
71463;BMP180;59266;52.608;13.260;2023-05-07T06:34:37;101945.00;;;15.00
71463;BMP180;59266;52.608;13.260;2023-05-07T06:37:05;101954.00;;;14.20
71463;BMP180;59266;52.608;13.260;2023-05-07T06:39:32;101964.00;;;13.90
71463;BMP180;59266;52.608;13.260;2023-05-07T06:42:00;101964.00;;;13.80
71463;BMP180;59266;52.608;13.260;2023-05-07T06:44:28;101968.00;;;14.30
71463;BMP180;59266;52.608;13.260;2023-05-07T06:46:54;101942.00;;;16.30
71463;BMP180;59266;52.608;13.260;2023-05-07T06:49:21;101930.00;;;17.30
71463;BMP180;59266;52.608;13.260;2023-05-07T06:51:48;101970.00;;;17.10
71463;BMP180;59266;52.608;13.260;2023-05-07T06:54:15;101983.00;;;16.80
71463;BMP180;59266;52.608;13.260;2023-05-07T06:56:44;101979.00;;;17.10
71463;BMP180;59266;52.608;13.260;2023-05-07T06:59:11;101992.00;;;15.40
71463;BMP180;59266;52.608;13.260;2023-05-07T07:01:39;101984.00;;;14.10
71463;BMP180;59266;52.608;13.260;2023-05-07T07:04:06;101991.00;;;14.20
71463;BMP180;59266;52.608;13.260;2023-05-07T07:06:35;101982.00;;;14.10
71463;BMP180;59266;52.608;13.260;2023-05-07T07:09:01;101980.00;;;14.20
71463;BMP180;59266;52.608;13.260;2023-05-07T07:11:29;101974.00;;;15.80
71463;BMP180;59266;52.608;13.260;2023-05-07T07:13:56;101978.00;;;15.00
71463;BMP180;59266;52.608;13.260;2023-05-07T07:16:27;101984.00;;;15.30
71463;BMP180;59266;52.608;13.260;2023-05-07T07:18:56;101955.00;;;16.20
71463;BMP180;59266;52.608;13.260;2023-05-07T07:21:22;101952.00;;;19.70
71463;BMP180;59266;52.608;13.260;2023-05-07T07:23:50;101972.00;;;19.90
71463;BMP180;59266;52.608;13.260;2023-05-07T07:26:17;101975.00;;;19.20
71463;BMP180;59266;52.608;13.260;2023-05-07T07:28:45;101963.00;;;19.50
71463;BMP180;59266;52.608;13.260;2023-05-07T07:31:13;101968.00;;;23.20
71463;BMP180;59266;52.608;13.260;2023-05-07T07:33:40;101966.00;;;21.80
71463;BMP180;59266;52.608;13.260;2023-05-07T07:36:09;101955.00;;;22.70
71463;BMP180;59266;52.608;13.260;2023-05-07T07:38:35;101957.00;;;23.20
71463;BMP180;59266;52.608;13.260;2023-05-07T07:41:02;101951.00;;;21.30
71463;BMP180;59266;52.608;13.260;2023-05-07T07:43:29;101959.00;;;19.90
71463;BMP180;59266;52.608;13.260;2023-05-07T07:45:56;101946.00;;;20.90
71463;BMP180;59266;52.608;13.260;2023-05-07T07:48:22;101954.00;;;22.90
71463;BMP180;59266;52.608;13.260;2023-05-07T07:50:49;101936.00;;;20.40
71463;BMP180;59266;52.608;13.260;2023-05-07T07:53:19;101941.00;;;20.90
71463;BMP180;59266;52.608;13.260;2023-05-07T07:55:45;101945.00;;;19.90
71463;BMP180;59266;52.608;13.260;2023-05-07T07:58:13;101947.00;;;21.60
71463;BMP180;59266;52.608;13.260;2023-05-07T08:00:42;101954.00;;;22.00
71463;BMP180;59266;52.608;13.260;2023-05-07T08:03:09;101965.00;;;25.00
71463;BMP180;59266;52.608;13.260;2023-05-07T08:05:40;101961.00;;;24.50
71463;BMP180;59266;52.608;13.260;2023-05-07T08:08:10;101960.00;;;24.00
71463;BMP180;59266;52.608;13.260;2023-05-07T08:10:36;101959.00;;;24.70
71463;BMP180;59266;52.608;13.260;2023-05-07T08:13:05;101957.00;;;24.20
71463;BMP180;59266;52.608;13.260;2023-05-07T08:15:32;101954.00;;;25.80
71463;BMP180;59266;52.608;13.260;2023-05-07T08:17:59;101960.00;;;25.20
71463;BMP180;59266;52.608;13.260;2023-05-07T08:20:26;101965.00;;;25.60
71463;BMP180;59266;52.608;13.260;2023-05-07T08:22:54;101980.00;;;24.70
71463;BMP180;59266;52.608;13.260;2023-05-07T08:25:22;101964.00;;;23.60
71463;BMP180;59266;52.608;13.260;2023-05-07T08:27:49;101958.00;;;23.20
71463;BMP180;59266;52.608;13.260;2023-05-07T08:30:15;101960.00;;;22.10
71463;BMP180;59266;52.608;13.260;2023-05-07T08:32:42;101962.00;;;23.30
71463;BMP180;59266;52.608;13.260;2023-05-07T08:35:10;101963.00;;;26.50
71463;BMP180;59266;52.608;13.260;2023-05-07T08:37:36;101970.00;;;24.20
71463;BMP180;59266;52.608;13.260;2023-05-07T08:40:03;101968.00;;;25.80
71463;BMP180;59266;52.608;13.260;2023-05-07T08:42:37;101963.00;;;23.20
71463;BMP180;59266;52.608;13.260;2023-05-07T08:45:12;101970.00;;;23.10
71463;BMP180;59266;52.608;13.260;2023-05-07T08:47:44;101971.00;;;25.70
71463;BMP180;59266;52.608;13.260;2023-05-07T08:50:14;101974.00;;;25.70
71463;BMP180;59266;52.608;13.260;2023-05-07T08:52:42;101976.00;;;25.00
71463;BMP180;59266;52.608;13.260;2023-05-07T08:55:09;101969.00;;;25.90
71463;BMP180;59266;52.608;13.260;2023-05-07T08:57:40;101968.00;;;24.60
71463;BMP180;59266;52.608;13.260;2023-05-07T09:00:08;101961.00;;;25.00
71463;BMP180;59266;52.608;13.260;2023-05-07T09:02:37;101976.00;;;24.70
71463;BMP180;59266;52.608;13.260;2023-05-07T09:05:06;102013.00;;;24.50
71463;BMP180;59266;52.608;13.260;2023-05-07T09:07:33;101977.00;;;22.50
71463;BMP180;59266;52.608;13.260;2023-05-07T09:10:04;101975.00;;;22.50
71463;BMP180;59266;52.608;13.260;2023-05-07T09:12:32;101978.00;;;23.50
71463;BMP180;59266;52.608;13.260;2023-05-07T09:14:59;101972.00;;;22.20
71463;BMP180;59266;52.608;13.260;2023-05-07T09:17:25;101974.00;;;22.00
71463;BMP180;59266;52.608;13.260;2023-05-07T09:19:52;101981.00;;;23.50
71463;BMP180;59266;52.608;13.260;2023-05-07T09:22:20;101984.00;;;24.30
71463;BMP180;59266;52.608;13.260;2023-05-07T09:24:51;101971.00;;;23.90
71463;BMP180;59266;52.608;13.260;2023-05-07T09:27:18;102000.00;;;23.30
71463;BMP180;59266;52.608;13.260;2023-05-07T09:29:48;101986.00;;;21.70
71463;BMP180;59266;52.608;13.260;2023-05-07T09:32:17;101962.00;;;23.00
71463;BMP180;59266;52.608;13.260;2023-05-07T09:34:44;101973.00;;;26.30
71463;BMP180;59266;52.608;13.260;2023-05-07T09:37:12;101966.00;;;25.50
71463;BMP180;59266;52.608;13.260;2023-05-07T09:39:44;101985.00;;;22.70
71463;BMP180;59266;52.608;13.260;2023-05-07T09:42:13;102003.00;;;22.00
71463;BMP180;59266;52.608;13.260;2023-05-07T09:44:46;101968.00;;;21.90
71463;BMP180;59266;52.608;13.260;2023-05-07T09:47:18;101977.00;;;22.50
71463;BMP180;59266;52.608;13.260;2023-05-07T09:49:48;102013.00;;;21.30
71463;BMP180;59266;52.608;13.260;2023-05-07T09:52:15;101979.00;;;22.00
71463;BMP180;59266;52.608;13.260;2023-05-07T09:54:43;101993.00;;;21.00
71463;BMP180;59266;52.608;13.260;2023-05-07T09:57:12;102016.00;;;20.90
71463;BMP180;59266;52.608;13.260;2023-05-07T09:59:43;101981.00;;;20.40
71463;BMP180;59266;52.608;13.260;2023-05-07T10:02:11;102018.00;;;21.70
71463;BMP180;59266;52.608;13.260;2023-05-07T10:04:39;101981.00;;;21.40
71463;BMP180;59266;52.608;13.260;2023-05-07T10:07:13;101986.00;;;22.70
71463;BMP180;59266;52.608;13.260;2023-05-07T10:09:42;102022.00;;;21.30
71463;BMP180;59266;52.608;13.260;2023-05-07T10:12:10;101989.00;;;20.30
71463;BMP180;59266;52.608;13.260;2023-05-07T10:14:37;102014.00;;;20.50
71463;BMP180;59266;52.608;13.260;2023-05-07T10:17:05;102024.00;;;20.30
71463;BMP180;59266;52.608;13.260;2023-05-07T10:19:34;101989.00;;;20.60
71463;BMP180;59266;52.608;13.260;2023-05-07T10:22:05;102029.00;;;22.60
71463;BMP180;59266;52.608;13.260;2023-05-07T10:24:36;102032.00;;;20.90
71463;BMP180;59266;52.608;13.260;2023-05-07T10:27:09;102024.00;;;20.50
71463;BMP180;59266;52.608;13.260;2023-05-07T10:34:44;102028.00;;;18.80
71463;BMP180;59266;52.608;13.260;2023-05-07T10:37:13;102019.00;;;19.30
71463;BMP180;59266;52.608;13.260;2023-05-07T10:39:41;102021.00;;;19.60
71463;BMP180;59266;52.608;13.260;2023-05-07T10:42:13;102026.00;;;19.30
71463;BMP180;59266;52.608;13.260;2023-05-07T10:44:40;102021.00;;;18.60
71463;BMP180;59266;52.608;13.260;2023-05-07T10:47:12;102022.00;;;19.20
71463;BMP180;59266;52.608;13.260;2023-05-07T10:52:20;101987.00;;;19.30
71463;BMP180;59266;52.608;13.260;2023-05-07T10:54:47;102008.00;;;19.30
71463;BMP180;59266;52.608;13.260;2023-05-07T10:57:36;101991.00;;;18.90
71463;BMP180;59266;52.608;13.260;2023-05-07T11:00:03;102021.00;;;18.90
71463;BMP180;59266;52.608;13.260;2023-05-07T11:03:04;102001.00;;;18.60
71463;BMP180;59266;52.608;13.260;2023-05-07T11:05:35;101984.00;;;21.00
71463;BMP180;59266;52.608;13.260;2023-05-07T11:08:08;102022.00;;;19.90
71463;BMP180;59266;52.608;13.260;2023-05-07T11:10:55;102026.00;;;19.30
71463;BMP180;59266;52.608;13.260;2023-05-07T11:16:19;102012.00;;;20.40
71463;BMP180;59266;52.608;13.260;2023-05-07T11:18:49;101997.00;;;21.10
71463;BMP180;59266;52.608;13.260;2023-05-07T11:21:38;101997.00;;;19.90
71463;BMP180;59266;52.608;13.260;2023-05-07T11:24:08;102000.00;;;20.00
71463;BMP180;59266;52.608;13.260;2023-05-07T11:26:48;101990.00;;;20.70
71463;BMP180;59266;52.608;13.260;2023-05-07T11:29:20;101991.00;;;20.00
71463;BMP180;59266;52.608;13.260;2023-05-07T11:31:50;101979.00;;;20.50
71463;BMP180;59266;52.608;13.260;2023-05-07T11:34:21;101979.00;;;21.80
71463;BMP180;59266;52.608;13.260;2023-05-07T11:36:51;101968.00;;;21.80
71463;BMP180;59266;52.608;13.260;2023-05-07T11:39:23;101981.00;;;22.20
71463;BMP180;59266;52.608;13.260;2023-05-07T11:41:51;101973.00;;;21.40
71463;BMP180;59266;52.608;13.260;2023-05-07T11:44:20;101972.00;;;20.40
71463;BMP180;59266;52.608;13.260;2023-05-07T11:46:48;101980.00;;;21.10
71463;BMP180;59266;52.608;13.260;2023-05-07T11:49:17;101979.00;;;21.00
71463;BMP180;59266;52.608;13.260;2023-05-07T11:51:49;102008.00;;;21.70
71463;BMP180;59266;52.608;13.260;2023-05-07T11:54:21;102000.00;;;21.40
71463;BMP180;59266;52.608;13.260;2023-05-07T11:56:50;102012.00;;;19.90
71463;BMP180;59266;52.608;13.260;2023-05-07T11:59:17;102015.00;;;19.80
71463;BMP180;59266;52.608;13.260;2023-05-07T12:01:49;102011.00;;;19.70
71463;BMP180;59266;52.608;13.260;2023-05-07T12:04:20;102011.00;;;19.40
71463;BMP180;59266;52.608;13.260;2023-05-07T12:06:47;101997.00;;;19.60
71463;BMP180;59266;52.608;13.260;2023-05-07T12:09:16;101997.00;;;19.50
71463;BMP180;59266;52.608;13.260;2023-05-07T12:11:45;101987.00;;;20.20
71463;BMP180;59266;52.608;13.260;2023-05-07T12:14:13;102010.00;;;20.70
71463;BMP180;59266;52.608;13.260;2023-05-07T12:16:42;101975.00;;;19.40
71463;BMP180;59266;52.608;13.260;2023-05-07T12:19:11;101997.00;;;19.90
71463;BMP180;59266;52.608;13.260;2023-05-07T12:21:41;101980.00;;;20.40
71463;BMP180;59266;52.608;13.260;2023-05-07T12:24:10;101978.00;;;20.40
71463;BMP180;59266;52.608;13.260;2023-05-07T12:26:39;101973.00;;;20.50
71463;BMP180;59266;52.608;13.260;2023-05-07T12:29:07;101973.00;;;20.70
71463;BMP180;59266;52.608;13.260;2023-05-07T12:31:43;101979.00;;;21.10
71463;BMP180;59266;52.608;13.260;2023-05-07T12:34:11;101976.00;;;20.70
71463;BMP180;59266;52.608;13.260;2023-05-07T12:36:39;102004.00;;;20.20
71463;BMP180;59266;52.608;13.260;2023-05-07T12:39:08;101999.00;;;20.00
71463;BMP180;59266;52.608;13.260;2023-05-07T12:41:57;101987.00;;;20.10
71463;BMP180;59266;52.608;13.260;2023-05-07T12:44:29;101980.00;;;19.80
71463;BMP180;59266;52.608;13.260;2023-05-07T12:46:56;101984.00;;;20.70
71463;BMP180;59266;52.608;13.260;2023-05-07T12:49:23;101984.00;;;20.60
71463;BMP180;59266;52.608;13.260;2023-05-07T12:51:51;101982.00;;;20.60
71463;BMP180;59266;52.608;13.260;2023-05-07T12:54:29;101997.00;;;20.40
71463;BMP180;59266;52.608;13.260;2023-05-07T12:57:02;101966.00;;;20.50
71463;BMP180;59266;52.608;13.260;2023-05-07T12:59:37;101980.00;;;20.10
71463;BMP180;59266;52.608;13.260;2023-05-07T13:02:05;101973.00;;;20.40
71463;BMP180;59266;52.608;13.260;2023-05-07T13:04:32;101978.00;;;20.70
71463;BMP180;59266;52.608;13.260;2023-05-07T13:07:00;101994.00;;;20.30
71463;BMP180;59266;52.608;13.260;2023-05-07T13:09:30;101969.00;;;20.00
71463;BMP180;59266;52.608;13.260;2023-05-07T13:11:58;101961.00;;;20.20
71463;BMP180;59266;52.608;13.260;2023-05-07T13:14:27;101978.00;;;20.00
71463;BMP180;59266;52.608;13.260;2023-05-07T13:16:56;101979.00;;;20.60
71463;BMP180;59266;52.608;13.260;2023-05-07T13:19:23;101972.00;;;20.70
71463;BMP180;59266;52.608;13.260;2023-05-07T13:21:49;101978.00;;;20.30
71463;BMP180;59266;52.608;13.260;2023-05-07T13:24:16;101976.00;;;20.30
71463;BMP180;59266;52.608;13.260;2023-05-07T13:26:43;101978.00;;;20.60
71463;BMP180;59266;52.608;13.260;2023-05-07T13:29:11;101961.00;;;20.40
71463;BMP180;59266;52.608;13.260;2023-05-07T13:31:38;101996.00;;;20.60
71463;BMP180;59266;52.608;13.260;2023-05-07T13:34:10;102003.00;;;20.70
71463;BMP180;59266;52.608;13.260;2023-05-07T13:36:39;101976.00;;;20.80
71463;BMP180;59266;52.608;13.260;2023-05-07T13:39:08;101984.00;;;20.70
71463;BMP180;59266;52.608;13.260;2023-05-07T13:41:35;101992.00;;;20.80
71463;BMP180;59266;52.608;13.260;2023-05-07T13:44:02;101980.00;;;20.30
71463;BMP180;59266;52.608;13.260;2023-05-07T13:46:28;101969.00;;;20.50
71463;BMP180;59266;52.608;13.260;2023-05-07T13:48:56;101965.00;;;20.90
71463;BMP180;59266;52.608;13.260;2023-05-07T13:51:25;101971.00;;;20.80
71463;BMP180;59266;52.608;13.260;2023-05-07T13:53:52;101979.00;;;20.40
71463;BMP180;59266;52.608;13.260;2023-05-07T13:56:21;101978.00;;;21.40
71463;BMP180;59266;52.608;13.260;2023-05-07T13:58:50;101972.00;;;21.90
71463;BMP180;59266;52.608;13.260;2023-05-07T14:01:26;102014.00;;;21.10
71463;BMP180;59266;52.608;13.260;2023-05-07T14:03:53;102006.00;;;20.50
71463;BMP180;59266;52.608;13.260;2023-05-07T14:06:19;102001.00;;;20.20